createdAt,value
2022-08-19T00:02:50.034Z,71.38
2022-08-19T00:11:18.555Z,71.30
2022-08-19T00:19:48.308Z,71.56
2022-08-19T00:28:11.296Z,71.46
2022-08-19T00:36:34.288Z,71.69
2022-08-19T00:44:57.179Z,71.43
2022-08-19T00:53:25.035Z,71.58
2022-08-19T01:01:48.570Z,72.25
2022-08-19T01:10:15.397Z,72.45
2022-08-19T01:18:42.498Z,72.17
2022-08-19T01:27:06.997Z,72.34
2022-08-19T01:35:33.925Z,72.38
2022-08-19T01:44:17.121Z,72.47
2022-08-19T01:52:42.164Z,72.86
2022-08-19T02:01:06.320Z,72.84
2022-08-19T02:09:29.346Z,73.15
2022-08-19T02:17:52.544Z,73.55
2022-08-19T02:26:16.431Z,73.15
2022-08-19T02:34:39.878Z,73.01
2022-08-19T02:43:07.671Z,73.36
2022-08-19T02:51:39.653Z,73.49
2022-08-19T03:00:06.594Z,73.58
2022-08-19T03:08:29.587Z,73.42
2022-08-19T03:16:53.463Z,73.96
2022-08-19T03:25:16.816Z,74.37
2022-08-19T03:33:40.730Z,74.81
2022-08-19T03:42:32.880Z,75.43
2022-08-19T03:50:47.489Z,75.70
2022-08-19T03:59:14.557Z,75.92
2022-08-19T04:07:37.525Z,76.15
2022-08-19T04:16:00.739Z,76.68
2022-08-19T04:24:24.284Z,77.14
2022-08-19T04:32:47.599Z,77.53
2022-08-19T04:41:29.079Z,77.88
2022-08-19T04:49:52.086Z,77.93
2022-08-19T04:58:14.986Z,77.86
2022-08-19T05:06:38.611Z,78.15
2022-08-19T05:15:03.117Z,78.66
2022-08-19T05:23:26.339Z,78.14
2022-08-19T05:31:53.157Z,77.65
2022-08-19T05:40:16.026Z,77.42
2022-08-19T05:48:38.932Z,77.47
2022-08-19T05:57:02.744Z,77.08
2022-08-19T06:05:26.020Z,74.18
2022-08-19T06:13:59.598Z,71.06
2022-08-19T06:22:23.574Z,70.43
2022-08-19T06:30:46.761Z,69.08
2022-08-19T06:39:16.914Z,69.52
2022-08-19T06:47:39.718Z,69.90
2022-08-19T06:56:03.286Z,69.17
2022-08-19T07:04:30.735Z,68.66
2022-08-19T07:12:54.931Z,67.57
2022-08-19T07:21:22.245Z,66.59
2022-08-19T07:29:46.965Z,66.57
2022-08-19T07:38:19.493Z,66.34
2022-08-19T07:46:48.265Z,65.38
2022-08-19T07:55:42.025Z,64.90
2022-08-19T08:04:17.826Z,64.62
2022-08-19T08:12:44.416Z,63.81
2022-08-19T08:21:24.772Z,63.84
2022-08-19T08:29:49.747Z,63.35
2022-08-19T08:38:13.256Z,62.85
2022-08-19T08:46:46.899Z,62.02
2022-08-19T08:55:16.148Z,62.41
2022-08-19T09:03:43.409Z,61.70
2022-08-19T09:12:13.213Z,61.74
2022-08-19T09:20:36.140Z,61.54
2022-08-19T09:29:06.863Z,61.22
2022-08-19T09:37:29.825Z,60.98
2022-08-19T09:45:53.547Z,60.30
2022-08-19T09:54:16.865Z,60.14
2022-08-19T10:02:47.282Z,59.72
2022-08-19T10:11:27.941Z,59.52
2022-08-19T10:19:55.743Z,59.35
2022-08-19T10:28:19.721Z,58.84
2022-08-19T10:36:56.110Z,58.53
2022-08-19T10:45:19.820Z,58.51
2022-08-19T10:53:42.644Z,58.41
2022-08-19T11:02:11.003Z,59.16
2022-08-19T11:10:34.099Z,59.52
2022-08-19T11:19:00.459Z,59.66
2022-08-19T11:27:23.470Z,58.78
2022-08-19T11:35:46.451Z,58.90
2022-08-19T11:44:09.417Z,59.69
2022-08-19T11:52:32.434Z,59.17
2022-08-19T12:00:55.345Z,59.04
2022-08-19T12:09:18.761Z,59.23
2022-08-19T12:17:43.272Z,58.94
2022-08-19T12:26:06.146Z,58.03
2022-08-19T12:34:33.424Z,57.57
2022-08-19T12:42:56.354Z,57.23
2022-08-19T12:51:20.792Z,56.23
2022-08-19T12:59:43.992Z,55.08
2022-08-19T13:08:06.859Z,54.65
2022-08-19T13:16:30.005Z,53.60
2022-08-19T13:24:53.863Z,53.30
2022-08-19T13:33:16.976Z,53.39
2022-08-19T13:41:49.007Z,53.01
2022-08-19T13:50:14.720Z,52.93
2022-08-19T13:58:38.801Z,52.72
2022-08-19T14:07:02.593Z,52.64
2022-08-19T14:15:27.352Z,52.20
2022-08-19T14:23:50.826Z,52.59
2022-08-19T14:32:16.773Z,52.30
2022-08-19T14:40:41.644Z,52.08
2022-08-19T14:49:09.280Z,52.07
2022-08-19T14:57:32.732Z,51.95
2022-08-19T15:05:58.597Z,51.60
2022-08-19T15:14:22.047Z,52.07
2022-08-19T15:22:45.332Z,52.03
2022-08-19T15:31:09.326Z,51.92
2022-08-19T15:39:47.235Z,51.94
2022-08-19T15:48:10.224Z,52.32
2022-08-19T15:56:58.024Z,52.11
2022-08-19T16:05:45.359Z,52.19
2022-08-19T16:14:11.013Z,52.32
2022-08-19T16:22:35.396Z,52.50
2022-08-19T16:30:58.461Z,53.40
2022-08-19T16:39:22.563Z,54.29
2022-08-19T16:47:46.948Z,53.71
2022-08-19T16:56:09.983Z,54.84
2022-08-19T17:04:33.208Z,55.26
2022-08-19T17:12:56.215Z,54.55
2022-08-19T17:21:22.684Z,54.70
2022-08-19T17:29:47.357Z,54.94
2022-08-19T17:38:18.072Z,54.96
2022-08-19T17:46:41.035Z,55.03
2022-08-19T17:55:06.661Z,55.65
2022-08-19T18:03:31.911Z,56.11
2022-08-19T18:11:57.337Z,55.81
2022-08-19T18:20:23.547Z,56.18
2022-08-19T18:28:49.641Z,56.34
2022-08-19T18:37:14.482Z,56.62
2022-08-19T18:45:59.588Z,56.66
2022-08-19T18:54:24.740Z,56.91
2022-08-19T19:02:47.590Z,56.85
2022-08-19T19:11:10.587Z,57.05
2022-08-19T19:19:35.319Z,57.49
2022-08-19T19:27:58.209Z,57.81
2022-08-19T19:36:21.255Z,57.67
2022-08-19T19:44:48.714Z,57.94
2022-08-19T19:53:11.746Z,58.10
2022-08-19T20:01:44.643Z,58.12
2022-08-19T20:10:09.795Z,58.42
2022-08-19T20:18:32.738Z,58.73
2022-08-19T20:26:56.920Z,59.58
2022-08-19T20:35:21.554Z,59.45
2022-08-19T20:43:44.378Z,59.26
2022-08-19T20:52:07.399Z,59.64
2022-08-19T21:00:32.469Z,59.58
2022-08-19T21:08:55.479Z,59.73
2022-08-19T21:17:18.628Z,60.17
2022-08-19T21:25:43.632Z,60.31
2022-08-19T21:34:19.323Z,61.37
2022-08-19T21:42:44.855Z,61.37
2022-08-19T21:51:08.869Z,61.30
2022-08-19T21:59:31.701Z,61.32
2022-08-19T22:07:58.044Z,61.52
2022-08-19T22:16:24.543Z,62.08
2022-08-19T22:24:47.497Z,62.12
2022-08-19T22:33:16.894Z,62.66
2022-08-19T22:41:42.739Z,62.80
2022-08-19T22:50:08.558Z,63.03
2022-08-19T22:58:40.372Z,62.78
2022-08-19T23:07:05.994Z,63.02
2022-08-19T23:15:32.242Z,63.52
2022-08-19T23:23:55.296Z,63.56
2022-08-19T23:32:21.944Z,63.45
2022-08-19T23:40:46.658Z,63.60
2022-08-19T23:49:09.569Z,64.14
2022-08-19T23:57:32.428Z,64.10
